EDT,Max TemperatureF,Mean TemperatureF,Min TemperatureF,Max Dew PointF,MeanDew PointF,Min DewpointF,Max Humidity, Mean Humidity, Min Humidity, Max Sea Level PressureIn, Mean Sea Level PressureIn, Min Sea Level PressureIn, Max VisibilityMiles, Mean VisibilityMiles, Min VisibilityMiles, Max Wind SpeedMPH, Mean Wind SpeedMPH, Max Gust SpeedMPH,PrecipitationIn, CloudCover, Events, WindDirDegrees
2013-10-1,73,64,54,62,59,52,98,86,66,30.02,29.98,29.95,10,6,0,15,6,21,0.00,4,Fog,205
2013-10-2,81,70,59,64,55,45,98,68,30,30.11,30.05,29.98,10,7,0,8,3,,0.00,3,Fog,277
2013-10-3,74,65,56,69,62,52,93,87,76,30.05,29.99,29.92,10,8,2,16,3,21,0.00,5,Rain,205
2013-10-4,79,72,64,70,66,63,94,84,69,30.04,30.00,29.94,10,10,7,10,4,,0.00,4,,192
2013-10-5,77,72,66,69,67,65,97,89,75,30.02,29.95,29.84,10,7,2,16,5,20,0.00,4,Rain,167
2013-10-6,68,60,52,67,58,42,94,88,67,29.85,29.76,29.71,10,8,2,14,8,22,0.00,7,Rain,235
2013-10-7,62,52,42,51,44,40,93,80,55,30.12,29.89,29.75,10,9,2,16,7,25,0.00,4,Rain,244
2013-10-8,71,56,41,50,46,39,94,70,44,30.25,30.21,30.12,10,10,7,12,3,18,0.00,0,,162
2013-10-9,71,56,41,49,43,39,93,64,33,30.30,30.24,30.19,10,9,2,9,2,,0.00,0,,119
2013-10-10,73,57,41,50,45,39,93,71,36,30.22,30.17,30.11,10,10,5,6,1,,0.00,0,,135
2013-10-11,74,56,39,52,45,38,94,70,33,30.15,30.10,30.04,10,9,1,8,1,,0.00,0,,128
2013-10-12,78,61,44,63,51,42,95,70,35,30.13,30.06,30.02,10,8,1,16,3,21,0.00,2,Rain,202
2013-10-13,65,54,42,61,46,40,97,75,42,30.39,30.29,30.13,10,8,0,14,4,20,0.00,1,Fog,307
2013-10-14,63,50,36,46,41,35,96,75,45,30.42,30.34,30.23,10,8,0,13,2,17,0.00,0,Fog,80
2013-10-15,63,52,41,61,51,39,94,86,77,30.23,30.01,29.84,10,8,3,14,4,18,0.00,4,Rain,162
2013-10-16,62,54,47,60,47,43,93,83,77,29.94,29.88,29.83,10,10,5,14,7,18,0.00,6,Rain,233
2013-10-17,51,48,45,48,46,44,93,89,80,29.93,29.86,29.79,10,8,3,12,6,18,0.00,7,Rain,229
2013-10-18,61,50,38,46,41,38,97,81,53,29.95,29.90,29.88,10,8,3,17,6,22,0.00,3,,228
2013-10-19,53,48,41,43,39,31,93,80,42,29.92,29.84,29.78,10,9,5,15,6,22,0.00,7,Rain,234
2013-10-20,60,49,38,43,40,36,89,69,46,29.91,29.85,29.81,10,10,10,17,8,26,0.00,4,,210
2013-10-21,56,48,41,48,41,28,89,74,58,29.92,29.87,29.83,10,10,7,17,10,28,0.00,7,Rain,243
2013-10-22,48,39,30,34,30,27,91,69,51,29.95,29.92,29.89,10,10,7,14,8,21,0.00,5,,252
2013-10-23,44,37,30,35,32,28,97,83,60,29.97,29.91,29.85,10,8,0,16,2,24,0.00,7,Fog-Rain,272
2013-10-24,41,37,33,36,34,32,96,90,76,30.24,30.08,29.97,10,7,2,13,5,16,0.00,8,Rain-Snow,276
2013-10-25,47,40,34,38,32,26,96,76,47,30.36,30.26,30.11,10,10,5,15,5,22,0.00,5,Rain,241
2013-10-26,51,44,38,39,32,27,82,61,53,30.10,29.93,29.82,10,10,10,20,12,29,0.00,7,Rain,249
2013-10-27,54,44,35,37,33,29,94,68,38,30.07,30.03,29.98,10,10,10,14,3,18,0.00,3,,225
2013-10-28,55,44,32,38,34,29,90,74,49,30.37,30.22,30.05,10,10,7,13,3,,0.00,1,,67
2013-10-29,55,44,32,40,36,30,92,74,53,30.40,30.33,30.21,10,10,10,9,3,,0.00,2,,95
2013-10-30,63,49,35,57,45,34,97,84,57,30.20,30.09,29.89,10,6,1,12,2,,0.00,5,Rain,144
2013-10-31,63,59,54,62,59,52,97,93,89,29.89,29.54,29.19,10,6,2,24,13,34,0.00,8,Rain,202